Time;durP1;ratioP1;P1;durP2;ratioP2;P2;SDS_P1;SDS_P2;PMS_P1;PMS_P2;Temp;Humidity;BMP_temperature;BMP_pressure;BME280_temperature;BME280_humidity;BME280_pressure;Samples;Min_cycle;Max_cycle;Signal;HPM_P1;HPM_P2
2023/07/14 00:00:08;;;;;;;5.07;1.73;;;;;;;;;;5020925;28;20049;-61
2023/07/14 00:02:37;;;;;;;6.15;2.13;;;;;;;;;;5019870;28;20045;-61
2023/07/14 00:05:04;;;;;;;5.35;1.80;;;;;;;;;;5022590;28;20048;-61
2023/07/14 00:07:30;;;;;;;3.38;1.75;;;;;;;;;;5021722;28;20049;-61
2023/07/14 00:09:56;;;;;;;4.70;2.00;;;;;;;;;;5023361;28;20501;-61
2023/07/14 00:12:22;;;;;;;3.30;1.70;;;;;;;;;;5024996;28;20033;-61
2023/07/14 00:14:48;;;;;;;3.70;1.80;;;;;;;;;;5023438;28;20049;-61
2023/07/14 00:17:15;;;;;;;3.22;2.22;;;;;;;;;;5029384;28;20037;-61
2023/07/14 00:19:41;;;;;;;4.43;1.70;;;;;;;;;;5023120;28;20044;-61
2023/07/14 00:22:14;;;;;;;6.70;2.08;;;;;;;;;;5023350;28;20041;-61
2023/07/14 00:24:42;;;;;;;4.13;2.00;;;;;;;;;;5021262;28;20496;-61
2023/07/14 00:27:17;;;;;;;2.70;1.77;;;;;;;;;;5016013;28;20064;-61
2023/07/14 00:29:45;;;;;;;4.13;1.83;;;;;;;;;;5006710;28;20056;-61
2023/07/14 00:32:16;;;;;;;4.10;1.98;;;;;;;;;;5015504;28;20052;-61
2023/07/14 00:34:42;;;;;;;3.33;1.83;;;;;;;;;;5017994;28;20033;-61
2023/07/14 00:37:09;;;;;;;5.20;2.33;;;;;;;;;;5022978;28;20049;-61
2023/07/14 00:39:35;;;;;;;3.28;1.83;;;;;;;;;;5020716;28;20034;-61
2023/07/14 00:42:03;;;;;;;6.82;2.22;;;;;;;;;;5023326;28;20040;-61
2023/07/14 00:44:30;;;;;;;6.28;2.05;;;;;;;;;;5024217;28;20041;-61
2023/07/14 00:46:56;;;;;;;4.00;1.90;;;;;;;;;;5023707;28;20044;-61
2023/07/14 00:49:35;;;;;;;4.43;2.17;;;;;;;;;;5022544;28;20049;-61
2023/07/14 00:52:35;;;;;;;4.00;1.93;;;;;;;;;;5018788;28;20049;-61
2023/07/14 00:55:19;;;;;;;2.35;1.52;;;;;;;;;;5018314;28;20316;-61
2023/07/14 00:57:45;;;;;;;5.03;1.83;;;;;;;;;;5017878;28;20038;-61
2023/07/14 01:00:26;;;;;;;4.03;1.80;;;;;;;;;;5017619;28;20041;-61
2023/07/14 01:02:52;;;;;;;4.18;2.10;;;;;;;;;;5042238;28;20033;-61
2023/07/14 01:05:20;;;;;;;3.70;1.90;;;;;;;;;;5020907;28;20045;-61
2023/07/14 01:07:47;;;;;;;4.03;1.73;;;;;;;;;;5018024;28;20038;-61
2023/07/14 01:10:17;;;;;;;7.03;2.03;;;;;;;;;;5022220;28;20040;-61
2023/07/14 01:12:51;;;;;;;4.15;1.98;;;;;;;;;;5009398;28;20033;-61
2023/07/14 01:15:18;;;;;;;4.32;2.00;;;;;;;;;;5025380;28;20595;-61
2023/07/14 01:17:46;;;;;;;4.82;2.10;;;;;;;;;;5024759;28;20049;-61
2023/07/14 01:20:12;;;;;;;2.92;1.83;;;;;;;;;;5028726;28;20044;-61
2023/07/14 01:23:01;;;;;;;3.50;1.73;;;;;;;;;;5003593;28;20033;-61
2023/07/14 01:25:36;;;;;;;3.47;2.05;;;;;;;;;;5016176;28;20766;-61
2023/07/14 01:28:09;;;;;;;3.22;2.03;;;;;;;;;;5015303;28;20037;-61
2023/07/14 01:30:37;;;;;;;4.63;1.90;;;;;;;;;;5016089;28;20045;-60
2023/07/14 01:33:04;;;;;;;4.63;2.03;;;;;;;;;;5017856;28;20516;-61
2023/07/14 01:35:34;;;;;;;5.05;1.90;;;;;;;;;;5015701;28;20049;-61
2023/07/14 01:38:00;;;;;;;2.00;1.60;;;;;;;;;;5018856;28;20048;-61
2023/07/14 01:40:27;;;;;;;4.60;2.08;;;;;;;;;;5020226;28;20041;-61
2023/07/14 01:43:00;;;;;;;4.97;2.25;;;;;;;;;;5020467;28;20045;-61
2023/07/14 01:45:31;;;;;;;4.20;2.05;;;;;;;;;;5024437;28;20581;-61
2023/07/14 01:47:59;;;;;;;4.82;1.90;;;;;;;;;;5023282;28;20057;-60
2023/07/14 01:50:32;;;;;;;5.72;2.03;;;;;;;;;;5019310;28;20049;-60
2023/07/14 01:53:27;;;;;;;4.25;1.85;;;;;;;;;;5020133;28;20046;-61
2023/07/14 01:55:56;;;;;;;2.58;1.98;;;;;;;;;;5022977;28;20046;-61
2023/07/14 01:58:33;;;;;;;6.70;2.10;;;;;;;;;;5020135;28;20041;-61
2023/07/14 02:01:01;;;;;;;2.10;1.48;;;;;;;;;;5018891;28;20030;-60
2023/07/14 02:03:34;;;;;;;2.63;2.08;;;;;;;;;;5018985;28;20037;-61
2023/07/14 02:06:01;;;;;;;5.38;2.30;;;;;;;;;;5020670;28;20057;-61
2023/07/14 02:08:27;;;;;;;5.30;2.00;;;;;;;;;;5021729;28;20041;-61
2023/07/14 02:10:53;;;;;;;3.67;2.05;;;;;;;;;;5006006;28;20038;-61
2023/07/14 02:13:22;;;;;;;4.93;2.30;;;;;;;;;;5023145;28;20052;-60
2023/07/14 02:15:48;;;;;;;6.60;2.10;;;;;;;;;;5023070;28;20037;-61
2023/07/14 02:18:19;;;;;;;2.55;2.05;;;;;;;;;;5022285;28;20034;-60
2023/07/14 02:20:47;;;;;;;5.07;1.80;;;;;;;;;;5001933;28;20057;-61
2023/07/14 02:23:19;;;;;;;5.82;2.25;;;;;;;;;;5017614;28;20045;-61
2023/07/14 02:25:55;;;;;;;4.40;1.90;;;;;;;;;;5014157;28;20328;-61
2023/07/14 02:28:21;;;;;;;5.53;2.35;;;;;;;;;;5017658;28;20052;-60
2023/07/14 02:30:53;;;;;;;3.17;2.20;;;;;;;;;;5016062;28;20034;-60
2023/07/14 02:33:26;;;;;;;4.93;2.00;;;;;;;;;;5023727;28;20033;-60
2023/07/14 02:36:16;;;;;;;5.00;2.28;;;;;;;;;;5017520;28;20041;-60
2023/07/14 02:38:42;;;;;;;3.28;2.05;;;;;;;;;;5019184;28;20037;-60
2023/07/14 02:41:22;;;;;;;6.05;2.28;;;;;;;;;;5024131;28;20045;-60
2023/07/14 02:43:53;;;;;;;4.10;2.35;;;;;;;;;;5019604;28;20034;-60
2023/07/14 02:46:31;;;;;;;4.25;2.15;;;;;;;;;;5022597;28;20045;-60
2023/07/14 02:48:57;;;;;;;5.80;2.70;;;;;;;;;;5018716;28;20038;-60
2023/07/14 02:51:23;;;;;;;4.80;2.03;;;;;;;;;;5022797;28;20041;-60
2023/07/14 02:53:49;;;;;;;3.97;2.20;;;;;;;;;;5022321;28;20034;-60
2023/07/14 02:56:15;;;;;;;5.03;2.33;;;;;;;;;;5017351;28;20064;-60
2023/07/14 02:58:47;;;;;;;5.68;2.42;;;;;;;;;;5016037;28;20034;-60
2023/07/14 03:01:13;;;;;;;4.80;2.60;;;;;;;;;;5020031;28;20029;-60
2023/07/14 03:03:39;;;;;;;3.63;2.10;;;;;;;;;;5018760;28;20420;-58
2023/07/14 03:06:05;;;;;;;5.13;2.30;;;;;;;;;;5021194;28;20034;-60
2023/07/14 03:08:31;;;;;;;3.50;2.30;;;;;;;;;;5016502;28;20044;-60
2023/07/14 03:11:00;;;;;;;8.80;2.05;;;;;;;;;;5022909;28;20033;-60
2023/07/14 03:13:26;;;;;;;2.72;2.10;;;;;;;;;;5021083;28;20054;-61
2023/07/14 03:15:52;;;;;;;6.07;2.40;;;;;;;;;;5025676;28;20588;-60
2023/07/14 03:18:18;;;;;;;5.93;2.70;;;;;;;;;;5026169;28;20053;-60
2023/07/14 03:20:45;;;;;;;3.78;2.25;;;;;;;;;;5015479;28;20040;-60
2023/07/14 03:23:11;;;;;;;3.65;2.45;;;;;;;;;;5016337;28;20046;-60
2023/07/14 03:25:38;;;;;;;5.88;2.35;;;;;;;;;;5015724;28;20056;-60
2023/07/14 03:28:05;;;;;;;6.97;2.92;;;;;;;;;;5017527;28;20520;-60
2023/07/14 03:30:38;;;;;;;4.82;2.55;;;;;;;;;;5015167;28;20060;-60
2023/07/14 03:33:05;;;;;;;4.65;2.78;;;;;;;;;;5017987;28;20050;-60
2023/07/14 03:35:31;;;;;;;7.07;2.50;;;;;;;;;;5019019;28;20040;-60
2023/07/14 03:37:57;;;;;;;4.70;2.80;;;;;;;;;;5020147;28;20042;-60
2023/07/14 03:40:23;;;;;;;6.50;3.10;;;;;;;;;;5020222;28;20057;-60
2023/07/14 03:42:50;;;;;;;6.35;2.83;;;;;;;;;;5017607;28;20042;-60
2023/07/14 03:45:16;;;;;;;4.45;3.08;;;;;;;;;;5023026;28;20038;-60
2023/07/14 03:47:43;;;;;;;5.55;2.80;;;;;;;;;;5018155;28;20107;-60
2023/07/14 03:50:11;;;;;;;6.60;2.53;;;;;;;;;;5018650;28;20121;-59
2023/07/14 03:52:37;;;;;;;6.72;2.78;;;;;;;;;;5014684;28;20049;-60
2023/07/14 03:55:04;;;;;;;5.82;3.20;;;;;;;;;;5021152;28;20037;-62
2023/07/14 03:57:31;;;;;;;4.97;2.83;;;;;;;;;;5017367;28;20050;-59
2023/07/14 03:59:57;;;;;;;5.00;2.90;;;;;;;;;;5014792;28;20054;-60
2023/07/14 04:02:23;;;;;;;6.72;2.47;;;;;;;;;;5022777;28;20038;-60
2023/07/14 04:04:51;;;;;;;5.88;2.88;;;;;;;;;;5017042;28;20052;-60
2023/07/14 04:07:17;;;;;;;8.02;2.83;;;;;;;;;;5021991;28;20033;-60
2023/07/14 04:09:44;;;;;;;5.20;2.55;;;;;;;;;;5018137;28;20052;-61
2023/07/14 04:12:10;;;;;;;6.47;2.88;;;;;;;;;;5022798;28;20053;-62
2023/07/14 04:14:36;;;;;;;6.13;3.10;;;;;;;;;;5022953;28;20045;-59
2023/07/14 04:17:02;;;;;;;4.72;2.60;;;;;;;;;;5026759;28;20037;-61
2023/07/14 04:19:28;;;;;;;5.18;2.92;;;;;;;;;;5022384;28;20036;-60
2023/07/14 04:21:54;;;;;;;6.25;3.13;;;;;;;;;;5014450;28;20049;-60
2023/07/14 04:24:20;;;;;;;6.25;3.80;;;;;;;;;;5017192;28;20034;-60
2023/07/14 04:26:46;;;;;;;8.13;3.42;;;;;;;;;;5016461;28;20441;-60
2023/07/14 04:29:13;;;;;;;8.25;3.78;;;;;;;;;;5020104;28;20040;-60
2023/07/14 04:31:39;;;;;;;6.95;3.50;;;;;;;;;;5018830;28;20045;-60
2023/07/14 04:34:05;;;;;;;6.53;3.70;;;;;;;;;;5023043;28;20037;-60
2023/07/14 04:36:32;;;;;;;5.20;3.10;;;;;;;;;;5023335;28;20049;-60
2023/07/14 04:39:07;;;;;;;5.78;2.80;;;;;;;;;;5021946;28;20044;-60
2023/07/14 04:41:35;;;;;;;9.27;3.72;;;;;;;;;;5019212;28;20037;-61
2023/07/14 04:44:14;;;;;;;7.28;4.05;;;;;;;;;;5025279;28;20045;-60
2023/07/14 04:46:41;;;;;;;7.05;3.95;;;;;;;;;;5021534;28;20043;-60
2023/07/14 04:49:08;;;;;;;7.85;3.67;;;;;;;;;;5025162;28;20456;-60
2023/07/14 04:51:35;;;;;;;8.35;3.25;;;;;;;;;;5020120;28;20041;-61
2023/07/14 04:54:02;;;;;;;5.93;3.30;;;;;;;;;;5023340;28;20033;-60
2023/07/14 04:56:29;;;;;;;9.30;4.07;;;;;;;;;;5019990;28;20048;-61
2023/07/14 04:58:56;;;;;;;6.68;3.60;;;;;;;;;;5018849;28;20512;-59
2023/07/14 05:01:23;;;;;;;4.78;3.40;;;;;;;;;;5022809;28;20041;-61
2023/07/14 05:03:49;;;;;;;9.95;4.20;;;;;;;;;;5026245;28;20036;-60
2023/07/14 05:06:15;;;;;;;8.18;3.53;;;;;;;;;;5034210;28;20044;-61
2023/07/14 05:08:41;;;;;;;7.85;3.72;;;;;;;;;;5033141;28;20492;-61
2023/07/14 05:13:56;;;;;;;11.38;6.70;;;;;;;;;;4979338;28;20056;-74
2023/07/14 05:16:22;;;;;;;10.82;5.13;;;;;;;;;;4997402;28;20046;-74
2023/07/14 05:18:51;;;;;;;8.18;3.85;;;;;;;;;;4991035;28;20077;-74
2023/07/14 05:21:20;;;;;;;8.07;3.72;;;;;;;;;;4994704;28;20038;-74
2023/07/14 05:23:48;;;;;;;8.30;3.90;;;;;;;;;;4987218;28;20038;-73
2023/07/14 05:26:17;;;;;;;15.85;8.98;;;;;;;;;;4987408;28;20052;-73
2023/07/14 05:28:43;;;;;;;7.40;4.80;;;;;;;;;;5002313;28;20031;-73
2023/07/14 05:31:12;;;;;;;9.23;4.47;;;;;;;;;;5008077;28;20038;-73
2023/07/14 05:33:39;;;;;;;11.00;5.10;;;;;;;;;;4995270;28;20416;-73
2023/07/14 05:36:05;;;;;;;8.98;4.43;;;;;;;;;;4992211;28;20038;-73
2023/07/14 05:38:35;;;;;;;9.43;5.03;;;;;;;;;;5005858;28;20038;-73
2023/07/14 05:41:04;;;;;;;9.10;4.65;;;;;;;;;;4974009;28;20053;-73
2023/07/14 05:43:32;;;;;;;9.65;4.32;;;;;;;;;;4999625;28;20488;-73
2023/07/14 05:45:59;;;;;;;8.63;4.50;;;;;;;;;;4986252;28;20519;-72
2023/07/14 05:48:26;;;;;;;9.60;4.50;;;;;;;;;;4983641;28;20267;-73
2023/07/14 05:50:52;;;;;;;10.43;5.18;;;;;;;;;;4978001;28;20052;-73
2023/07/14 05:53:19;;;;;;;9.60;5.00;;;;;;;;;;4989159;28;20494;-73
2023/07/14 05:55:46;;;;;;;11.30;4.72;;;;;;;;;;4972763;28;20374;-73
2023/07/14 05:58:17;;;;;;;9.48;4.55;;;;;;;;;;4989651;28;20042;-73
2023/07/14 06:00:47;;;;;;;8.13;4.50;;;;;;;;;;5007535;28;20393;-72
2023/07/14 06:03:18;;;;;;;10.18;4.85;;;;;;;;;;4991017;28;20034;-73
2023/07/14 06:05:48;;;;;;;8.10;4.45;;;;;;;;;;5007420;28;20045;-72
2023/07/14 06:08:15;;;;;;;8.52;4.72;;;;;;;;;;5001814;28;20401;-73
2023/07/14 06:10:41;;;;;;;8.15;4.75;;;;;;;;;;4989203;28;20034;-73
2023/07/14 06:13:10;;;;;;;13.07;5.07;;;;;;;;;;5005679;28;20042;-73
2023/07/14 06:15:39;;;;;;;11.63;5.38;;;;;;;;;;5008706;28;20062;-73
2023/07/14 06:18:05;;;;;;;10.68;5.05;;;;;;;;;;5005252;28;20042;-73
2023/07/14 06:20:33;;;;;;;11.57;4.40;;;;;;;;;;5011032;28;20257;-73
2023/07/14 06:23:00;;;;;;;8.38;4.65;;;;;;;;;;4983169;28;20043;-73
2023/07/14 06:25:26;;;;;;;11.48;4.32;;;;;;;;;;4991756;28;20505;-73
2023/07/14 06:27:55;;;;;;;9.52;5.07;;;;;;;;;;4994756;28;20026;-73
2023/07/14 06:30:25;;;;;;;9.60;4.90;;;;;;;;;;4986433;28;20046;-73
2023/07/14 06:32:51;;;;;;;7.18;4.38;;;;;;;;;;4972500;28;20049;-74
2023/07/14 06:35:18;;;;;;;8.40;4.32;;;;;;;;;;5008533;28;20042;-74
2023/07/14 06:37:45;;;;;;;21.38;4.82;;;;;;;;;;5005273;28;20041;-74
2023/07/14 06:40:15;;;;;;;11.13;4.38;;;;;;;;;;4997279;28;20476;-74
2023/07/14 06:42:43;;;;;;;13.40;4.72;;;;;;;;;;4990573;28;20030;-74
2023/07/14 06:45:09;;;;;;;7.27;4.17;;;;;;;;;;5006806;28;20038;-74
2023/07/14 06:47:38;;;;;;;15.13;4.57;;;;;;;;;;4990729;28;20034;-74
2023/07/14 06:50:07;;;;;;;10.20;4.18;;;;;;;;;;4976079;28;20030;-74
2023/07/14 06:52:39;;;;;;;14.52;4.35;;;;;;;;;;5004027;28;20049;-74
2023/07/14 06:55:06;;;;;;;8.75;4.78;;;;;;;;;;4993145;28;20034;-74
2023/07/14 06:57:36;;;;;;;8.85;4.55;;;;;;;;;;5005928;28;20045;-74
2023/07/14 07:00:09;;;;;;;8.60;4.43;;;;;;;;;;5005331;28;20031;-73
2023/07/14 07:02:35;;;;;;;10.18;4.43;;;;;;;;;;5008192;28;20296;-73
2023/07/14 07:05:06;;;;;;;11.73;4.78;;;;;;;;;;5009559;28;20042;-73
2023/07/14 07:07:35;;;;;;;12.40;4.75;;;;;;;;;;5005744;28;20496;-72
2023/07/14 07:10:04;;;;;;;8.47;4.13;;;;;;;;;;4988490;28;20038;-74
2023/07/14 07:12:34;;;;;;;8.82;4.18;;;;;;;;;;4990129;28;20288;-74
2023/07/14 07:15:03;;;;;;;10.63;4.72;;;;;;;;;;5001224;28;20045;-73
2023/07/14 07:17:29;;;;;;;10.55;4.53;;;;;;;;;;4993494;28;20041;-73
2023/07/14 07:19:56;;;;;;;13.98;4.78;;;;;;;;;;5009461;28;20408;-73
2023/07/14 07:22:22;;;;;;;11.18;4.20;;;;;;;;;;4986294;28;20057;-73
2023/07/14 07:24:50;;;;;;;8.27;4.35;;;;;;;;;;4993246;28;20038;-74
2023/07/14 07:27:19;;;;;;;7.30;4.20;;;;;;;;;;4994044;28;20034;-74
2023/07/14 07:29:45;;;;;;;11.32;4.70;;;;;;;;;;4959508;28;20049;-72
2023/07/14 07:32:13;;;;;;;8.20;4.22;;;;;;;;;;5004087;28;20041;-74
2023/07/14 07:34:39;;;;;;;8.52;3.97;;;;;;;;;;4973409;28;20042;-73
2023/07/14 07:37:06;;;;;;;10.13;4.20;;;;;;;;;;5008652;28;20492;-73
2023/07/14 07:39:35;;;;;;;12.95;4.97;;;;;;;;;;4995576;28;20049;-73
2023/07/14 07:42:04;;;;;;;13.48;4.60;;;;;;;;;;5004772;28;20082;-73
2023/07/14 07:44:31;;;;;;;12.73;4.78;;;;;;;;;;4985283;28;20073;-73
2023/07/14 07:46:57;;;;;;;14.65;4.55;;;;;;;;;;4994716;28;20042;-73
2023/07/14 07:49:24;;;;;;;13.48;4.57;;;;;;;;;;4999864;28;20037;-73
2023/07/14 07:51:50;;;;;;;6.72;4.18;;;;;;;;;;5007599;28;20030;-72
2023/07/14 07:54:18;;;;;;;11.07;4.00;;;;;;;;;;5010910;28;20041;-75
2023/07/14 07:56:47;;;;;;;7.93;4.43;;;;;;;;;;4988697;28;20037;-74
2023/07/14 07:59:15;;;;;;;12.85;3.63;;;;;;;;;;4987415;28;20396;-73
2023/07/14 08:01:43;;;;;;;6.63;3.35;;;;;;;;;;4993807;28;20045;-74
2023/07/14 08:04:10;;;;;;;7.60;3.25;;;;;;;;;;5012151;28;20053;-73
2023/07/14 08:06:41;;;;;;;10.32;3.45;;;;;;;;;;5009937;28;20440;-72
2023/07/14 08:09:09;;;;;;;6.82;3.15;;;;;;;;;;5010555;28;20042;-74
2023/07/14 08:11:42;;;;;;;7.32;3.30;;;;;;;;;;5007790;28;20053;-74
2023/07/14 08:14:17;;;;;;;6.85;3.55;;;;;;;;;;4997009;28;20039;-74
2023/07/14 08:16:44;;;;;;;9.13;3.05;;;;;;;;;;4997468;28;20496;-75
2023/07/14 08:19:10;;;;;;;6.85;3.42;;;;;;;;;;5012238;28;20652;-75
2023/07/14 08:21:38;;;;;;;6.05;3.40;;;;;;;;;;4993753;28;20042;-74
2023/07/14 08:24:07;;;;;;;7.07;3.50;;;;;;;;;;4996036;28;20041;-74
2023/07/14 08:26:35;;;;;;;7.80;3.40;;;;;;;;;;4998340;28;20431;-75
2023/07/14 08:29:03;;;;;;;6.78;2.92;;;;;;;;;;4996862;28;20030;-74
2023/07/14 08:31:32;;;;;;;6.40;3.00;;;;;;;;;;4997826;28;20485;-75
2023/07/14 08:33:59;;;;;;;5.43;3.13;;;;;;;;;;5007901;28;20027;-75
2023/07/14 08:36:30;;;;;;;5.38;2.88;;;;;;;;;;5000204;28;20050;-75
2023/07/14 08:38:56;;;;;;;5.10;3.05;;;;;;;;;;4990589;28;20055;-74
2023/07/14 08:41:29;;;;;;;10.82;3.00;;;;;;;;;;4996804;28;20505;-75
2023/07/14 08:44:17;;;;;;;7.60;3.53;;;;;;;;;;5002633;28;20038;-74
2023/07/14 08:47:10;;;;;;;8.00;3.08;;;;;;;;;;4976399;28;20049;-74
2023/07/14 08:49:51;;;;;;;5.90;2.63;;;;;;;;;;4998065;28;20030;-74
2023/07/14 08:52:43;;;;;;;6.78;3.25;;;;;;;;;;4978005;28;20045;-74
2023/07/14 08:55:28;;;;;;;7.75;2.70;;;;;;;;;;4994297;28;20049;-74
2023/07/14 08:57:59;;;;;;;5.22;2.90;;;;;;;;;;4993776;28;20039;-74
2023/07/14 09:00:30;;;;;;;4.78;2.60;;;;;;;;;;5009211;28;20508;-74
2023/07/14 09:03:11;;;;;;;6.80;2.90;;;;;;;;;;5009405;28;20035;-74
2023/07/14 09:05:54;;;;;;;5.07;3.00;;;;;;;;;;5003795;28;20038;-74
2023/07/14 09:08:29;;;;;;;5.20;3.00;;;;;;;;;;5003539;28;20404;-74
2023/07/14 09:11:28;;;;;;;6.97;2.88;;;;;;;;;;4994484;28;20037;-73
2023/07/14 09:14:22;;;;;;;4.75;2.85;;;;;;;;;;4993370;28;20400;-73
2023/07/14 09:17:37;;;;;;;5.90;3.00;;;;;;;;;;4996461;28;20042;-73
2023/07/14 09:20:25;;;;;;;4.75;2.80;;;;;;;;;;4967955;28;20450;-74
2023/07/14 09:23:12;;;;;;;8.40;2.83;;;;;;;;;;5006272;28;20056;-72
2023/07/14 09:25:45;;;;;;;;;;;;;;;;;;5006103;28;20399;-73
2023/07/14 09:28:17;;;;;;;6.72;3.00;;;;;;;;;;5017067;28;19926;-71
2023/07/14 09:30:46;;;;;;;5.57;2.80;;;;;;;;;;5016611;28;20042;-73
2023/07/14 09:33:16;;;;;;;5.95;2.75;;;;;;;;;;4996933;28;20041;-75
2023/07/14 09:35:47;;;;;;;7.97;2.83;;;;;;;;;;4995240;28;20308;-73
2023/07/14 09:38:40;;;;;;;4.38;2.30;;;;;;;;;;5006532;28;20046;-74
2023/07/14 09:41:14;;;;;;;7.88;3.38;;;;;;;;;;4991137;28;20496;-75
2023/07/14 09:43:43;;;;;;;3.55;2.83;;;;;;;;;;4995585;28;20035;-75
2023/07/14 09:46:14;;;;;;;3.97;2.47;;;;;;;;;;4992900;28;20504;-75
2023/07/14 09:48:50;;;;;;;5.10;2.60;;;;;;;;;;4995204;28;20054;-74
2023/07/14 09:51:24;;;;;;;5.68;2.80;;;;;;;;;;4991385;28;20064;-76
2023/07/14 09:54:00;;;;;;;4.85;2.60;;;;;;;;;;5004009;28;20035;-74
2023/07/14 09:56:36;;;;;;;7.68;4.20;;;;;;;;;;5001017;28;20038;-74
2023/07/14 09:59:07;;;;;;;;;;;;;;;;;;4993638;28;20035;-75
2023/07/14 10:01:33;;;;;;;3.63;2.80;;;;;;;;;;4975038;28;20548;-75
2023/07/14 10:04:13;;;;;;;4.03;3.03;;;;;;;;;;5007510;28;20049;-75
2023/07/14 10:06:41;;;;;;;4.70;2.42;;;;;;;;;;5006089;28;20509;-73
2023/07/14 10:09:13;;;;;;;4.13;2.72;;;;;;;;;;4989871;28;20034;-74
2023/07/14 10:11:42;;;;;;;4.75;2.70;;;;;;;;;;4991312;28;20039;-75
2023/07/14 10:14:26;;;;;;;4.20;2.78;;;;;;;;;;4988262;28;20050;-73
2023/07/14 10:16:56;;;;;;;4.97;2.85;;;;;;;;;;4989359;28;20046;-75
2023/07/14 10:19:33;;;;;;;6.78;2.78;;;;;;;;;;4989123;28;20050;-75
2023/07/14 10:22:11;;;;;;;5.68;2.90;;;;;;;;;;4987189;28;20034;-74
2023/07/14 10:24:38;;;;;;;4.60;2.87;;;;;;;;;;4987259;28;20512;-75
2023/07/14 10:27:29;;;;;;;5.72;3.08;;;;;;;;;;5005765;28;20038;-75
2023/07/14 10:30:08;;;;;;;11.23;4.40;;;;;;;;;;4989388;28;20049;-74
2023/07/14 10:32:52;;;;;;;4.68;2.45;;;;;;;;;;5002424;28;20038;-75
2023/07/14 10:35:22;;;;;;;4.93;2.80;;;;;;;;;;4987249;28;20034;-76
2023/07/14 10:38:16;;;;;;;5.13;2.85;;;;;;;;;;4993561;28;20038;-76
2023/07/14 10:41:05;;;;;;;4.45;2.83;;;;;;;;;;4995354;28;20400;-76
2023/07/14 10:43:38;;;;;;;4.47;2.88;;;;;;;;;;5001582;28;20038;-75
2023/07/14 10:46:11;;;;;;;5.10;2.80;;;;;;;;;;4996514;28;20026;-75
2023/07/14 10:49:09;;;;;;;7.43;3.13;;;;;;;;;;4991709;28;20045;-74
2023/07/14 10:51:43;;;;;;;4.40;2.80;;;;;;;;;;5000957;28;20069;-74
2023/07/14 10:54:14;;;;;;;8.25;2.70;;;;;;;;;;4988708;28;20034;-75
2023/07/14 10:56:48;;;;;;;3.90;2.80;;;;;;;;;;4982813;28;20053;-74
2023/07/14 10:59:20;;;;;;;5.97;2.92;;;;;;;;;;5004585;28;20053;-75
2023/07/14 11:02:11;;;;;;;6.20;2.92;;;;;;;;;;4982780;28;20041;-74
2023/07/14 11:04:45;;;;;;;8.15;3.05;;;;;;;;;;5002894;28;20039;-74
2023/07/14 11:07:28;;;;;;;5.43;3.22;;;;;;;;;;4980685;28;20045;-75
2023/07/14 11:09:59;;;;;;;7.20;2.80;;;;;;;;;;5002001;28;20373;-74
2023/07/14 11:12:35;;;;;;;4.07;2.92;;;;;;;;;;4990594;28;20046;-75
2023/07/14 11:15:18;;;;;;;5.13;2.67;;;;;;;;;;5002844;28;20042;-75
2023/07/14 11:17:55;;;;;;;6.15;2.83;;;;;;;;;;5005177;28;20418;-73
2023/07/14 11:20:24;;;;;;;4.93;2.75;;;;;;;;;;5003133;28;20049;-73
2023/07/14 11:23:14;;;;;;;5.68;2.58;;;;;;;;;;4986532;28;20378;-74
2023/07/14 11:26:05;;;;;;;5.82;2.80;;;;;;;;;;4987183;28;20504;-74
2023/07/14 11:28:49;;;;;;;5.28;3.08;;;;;;;;;;4989553;28;20042;-75
2023/07/14 11:31:27;;;;;;;6.93;3.20;;;;;;;;;;4990932;28;20034;-75
2023/07/14 11:34:20;;;;;;;6.00;3.00;;;;;;;;;;4992079;28;20053;-75
2023/07/14 11:36:58;;;;;;;5.30;3.38;;;;;;;;;;4968287;28;20045;-73
2023/07/14 11:39:48;;;;;;;6.85;2.80;;;;;;;;;;4976991;28;20497;-73
2023/07/14 11:42:25;;;;;;;3.50;2.70;;;;;;;;;;5001032;28;20273;-72
2023/07/14 11:44:56;;;;;;;7.65;2.90;;;;;;;;;;5000368;28;20065;-74
2023/07/14 11:47:37;;;;;;;5.35;2.80;;;;;;;;;;4998537;28;20030;-75
2023/07/14 11:50:18;;;;;;;7.10;3.30;;;;;;;;;;5011796;28;20031;-73
2023/07/14 11:53:18;;;;;;;7.43;2.72;;;;;;;;;;4994744;28;20465;-75
2023/07/14 11:55:49;;;;;;;8.15;3.33;;;;;;;;;;4974892;28;20053;-74
2023/07/14 11:58:27;;;;;;;7.03;2.95;;;;;;;;;;5011225;28;20034;-74
2023/07/14 12:01:13;;;;;;;7.28;2.88;;;;;;;;;;4991163;28;20057;-75
2023/07/14 12:03:46;;;;;;;7.30;2.90;;;;;;;;;;4993560;28;22030;-73
2023/07/14 12:06:19;;;;;;;9.13;3.38;;;;;;;;;;5000497;28;20045;-74
2023/07/14 12:09:03;;;;;;;5.93;2.80;;;;;;;;;;5010374;28;20101;-74
2023/07/14 12:11:43;;;;;;;3.85;2.78;;;;;;;;;;5015168;28;20038;-72
2023/07/14 12:14:36;;;;;;;5.40;2.60;;;;;;;;;;5010238;28;20018;-73
2023/07/14 12:17:43;;;;;;;5.88;2.90;;;;;;;;;;5026975;28;20034;-71
2023/07/14 12:20:11;;;;;;;5.57;2.45;;;;;;;;;;5025289;28;20384;-73
2023/07/14 12:22:53;;;;;;;3.55;2.70;;;;;;;;;;5010124;28;20044;-73
2023/07/14 12:25:22;;;;;;;6.82;2.70;;;;;;;;;;5007042;28;20034;-74
2023/07/14 12:27:51;;;;;;;5.97;2.90;;;;;;;;;;4994802;28;20038;-74
2023/07/14 12:30:25;;;;;;;6.45;2.58;;;;;;;;;;4989821;28;20027;-74
2023/07/14 12:33:04;;;;;;;5.18;2.50;;;;;;;;;;4989439;28;20035;-74
2023/07/14 12:35:37;;;;;;;6.78;2.58;;;;;;;;;;4987864;28;20053;-72
2023/07/14 12:38:19;;;;;;;5.60;2.65;;;;;;;;;;4994403;28;20061;-75
2023/07/14 12:40:51;;;;;;;4.75;2.67;;;;;;;;;;4998026;28;20042;-72
2023/07/14 12:43:32;;;;;;;5.95;2.70;;;;;;;;;;4998272;28;20408;-74
2023/07/14 12:46:09;;;;;;;7.20;2.72;;;;;;;;;;4989392;28;20034;-75
2023/07/14 12:48:36;;;;;;;3.40;3.10;;;;;;;;;;5003688;28;20037;-73
2023/07/14 12:51:13;;;;;;;5.30;2.80;;;;;;;;;;4999461;28;20039;-74
2023/07/14 12:53:40;;;;;;;5.70;2.65;;;;;;;;;;4992704;28;20034;-74
2023/07/14 12:56:13;;;;;;;4.97;2.75;;;;;;;;;;5008967;28;20030;-74
2023/07/14 12:58:39;;;;;;;7.05;2.75;;;;;;;;;;4993597;28;20038;-74
2023/07/14 13:01:05;;;;;;;5.32;2.40;;;;;;;;;;5009495;28;20046;-75
2023/07/14 13:03:36;;;;;;;5.70;2.53;;;;;;;;;;5003120;28;20030;-74
2023/07/14 13:06:05;;;;;;;6.20;2.70;;;;;;;;;;5001662;28;20026;-74
2023/07/14 13:08:32;;;;;;;4.47;2.55;;;;;;;;;;5001430;28;20041;-75
2023/07/14 13:10:58;;;;;;;6.22;2.60;;;;;;;;;;4992393;28;20512;-75
2023/07/14 13:13:41;;;;;;;3.40;2.60;;;;;;;;;;4994970;28;20038;-73
2023/07/14 13:16:12;;;;;;;3.20;2.72;;;;;;;;;;4975527;28;20401;-74
2023/07/14 13:18:39;;;;;;;4.35;2.97;;;;;;;;;;5003753;28;20041;-74
2023/07/14 13:21:35;;;;;;;5.80;2.97;;;;;;;;;;4994081;28;20501;-75
2023/07/14 13:24:16;;;;;;;7.22;2.85;;;;;;;;;;4982765;28;20042;-75
2023/07/14 13:26:53;;;;;;;3.78;2.70;;;;;;;;;;5001862;28;20046;-75
2023/07/14 13:29:23;;;;;;;3.72;2.70;;;;;;;;;;5004065;28;20485;-74
2023/07/14 13:31:56;;;;;;;5.25;2.92;;;;;;;;;;4997718;28;20034;-75
2023/07/14 13:34:31;;;;;;;4.28;2.70;;;;;;;;;;5008415;28;20998;-73
2023/07/14 13:37:02;;;;;;;7.47;2.78;;;;;;;;;;4975310;28;20030;-75
2023/07/14 13:39:32;;;;;;;4.90;2.60;;;;;;;;;;4996717;28;20038;-74
2023/07/14 13:42:01;;;;;;;7.38;3.03;;;;;;;;;;5001669;28;20517;-74
2023/07/14 13:44:37;;;;;;;4.50;2.80;;;;;;;;;;4996679;28;20033;-73
2023/07/14 13:47:16;;;;;;;3.65;3.00;;;;;;;;;;5001509;28;20058;-75
2023/07/14 13:49:45;;;;;;;4.07;2.80;;;;;;;;;;4990912;28;20034;-74
2023/07/14 13:52:19;;;;;;;5.80;3.28;;;;;;;;;;4990543;28;20477;-73
2023/07/14 13:54:55;;;;;;;5.82;2.60;;;;;;;;;;4990622;28;20038;-75
2023/07/14 13:57:24;;;;;;;5.50;2.90;;;;;;;;;;4990334;28;20042;-74
2023/07/14 13:59:50;;;;;;;6.97;2.95;;;;;;;;;;4984099;28;20039;-72
2023/07/14 14:02:31;;;;;;;3.33;3.03;;;;;;;;;;4986477;28;20034;-72
2023/07/14 14:05:00;;;;;;;5.25;3.00;;;;;;;;;;4984345;28;20034;-71
2023/07/14 14:07:26;;;;;;;4.72;2.80;;;;;;;;;;4997098;28;20056;-73
2023/07/14 14:09:52;;;;;;;6.75;3.03;;;;;;;;;;4987065;28;20037;-73
2023/07/14 14:12:19;;;;;;;5.32;2.80;;;;;;;;;;5000063;28;20030;-72
2023/07/14 14:14:46;;;;;;;4.63;3.20;;;;;;;;;;4998310;28;20038;-73
2023/07/14 14:17:28;;;;;;;4.95;2.88;;;;;;;;;;4993733;28;20033;-72
2023/07/14 14:19:54;;;;;;;3.78;2.70;;;;;;;;;;5004486;28;20057;-73
2023/07/14 14:22:26;;;;;;;5.45;2.90;;;;;;;;;;4989808;28;20046;-72
2023/07/14 14:24:52;;;;;;;5.78;3.70;;;;;;;;;;4998970;28;20034;-73
2023/07/14 14:27:18;;;;;;;4.63;2.50;;;;;;;;;;4995912;28;20041;-73
2023/07/14 14:29:45;;;;;;;4.82;2.97;;;;;;;;;;4992608;28;20038;-73
2023/07/14 14:32:15;;;;;;;6.03;3.08;;;;;;;;;;5000534;28;20035;-73
2023/07/14 14:34:43;;;;;;;4.80;2.95;;;;;;;;;;5002956;28;20030;-74
2023/07/14 14:37:10;;;;;;;;;;;;;;;;;;4989840;28;20420;-73
2023/07/14 14:39:36;;;;;;;3.80;2.75;;;;;;;;;;4990318;28;19917;-74
2023/07/14 14:42:03;;;;;;;4.60;3.25;;;;;;;;;;4985157;28;20043;-73
2023/07/14 14:44:29;;;;;;;5.82;3.20;;;;;;;;;;5008390;28;20038;-73
2023/07/14 14:47:00;;;;;;;3.97;3.08;;;;;;;;;;4991767;28;20500;-73
2023/07/14 14:49:26;;;;;;;6.03;3.17;;;;;;;;;;5002155;28;20050;-74
2023/07/14 14:51:54;;;;;;;6.05;3.13;;;;;;;;;;4991826;28;20030;-72
2023/07/14 14:54:21;;;;;;;7.90;2.92;;;;;;;;;;4990233;28;20038;-73
2023/07/14 14:56:50;;;;;;;8.10;3.50;;;;;;;;;;4990872;28;20038;-73
2023/07/14 14:59:25;;;;;;;3.72;2.85;;;;;;;;;;4986268;28;20034;-72
2023/07/14 15:01:53;;;;;;;5.78;2.90;;;;;;;;;;5021272;28;20044;-73
2023/07/14 15:04:24;;;;;;;;;;;;;;;;;;5010316;28;20070;-71
2023/07/14 15:06:51;;;;;;;4.68;2.80;;;;;;;;;;5008370;28;19918;-73
2023/07/14 15:09:21;;;;;;;6.00;2.78;;;;;;;;;;5008176;28;20034;-74
2023/07/14 15:11:54;;;;;;;4.55;2.65;;;;;;;;;;4989007;28;20042;-73